100LL.CA
Aviation Fuel Pricing for Canadians
Please upgrade your browser - Tested with IE9, FireFox, Chrome, Safari

Fuel Airports Other Help
Prices Economy Info List METAR/TAF Kneeboard Help

Reference Airport: RANKIN INLET, NU
N 62 48 38  W 092 06 53
Provinces to show:

CYRT RANKIN INLET, NU
WEATHER
METARCYRT 230300Z 35019KT 2SM IC BLSN SKC M29/M32 A2990 RMK BLSN2 SLP131
TAFTAF CYRT 222340Z 2300/2312 33020G30KT 1/2SM IC BLSN BKN003 TEMPO 2300/2306 2SM IC BLSN SCT050 FM230600 33015G25KT 1SM IC BLSN FEW200 TEMPO 2306/2310 4SM IC FM231000 33015KT P6SM SCT200 TEMPO 2310/2312 4SM IC RMK NXT FCST BY 230600Z
OTHER SITES

FlightAware

FltPlan

Google Maps

SkyVector
FUEL
FBO 100LL
member
100LL
public
JETA MOGAS
Opr (2018-03-28)1.8201.489
Canada Flight Supplement - CYRT
(opens in new tab/window)


Please Send Updates!

Desktop Version ]  [ Mobile Version ]  [ Disclaimer ]